createdAt,value
2019-04-16T00:02:11.824Z,10.57
2019-04-16T00:04:53.722Z,10.13
2019-04-16T00:07:35.259Z,11.12
2019-04-16T00:10:09.324Z,12.10
2019-04-16T00:12:56.490Z,11.33
2019-04-16T00:15:27.329Z,10.75
2019-04-16T00:17:57.603Z,10.82
2019-04-16T00:20:27.908Z,11.00
2019-04-16T00:23:02.377Z,11.03
2019-04-16T00:25:32.671Z,10.80
2019-04-16T00:28:03.262Z,9.67
2019-04-16T00:30:35.664Z,10.43
2019-04-16T00:33:07.590Z,10.32
2019-04-16T00:35:38.189Z,9.93
2019-04-16T00:38:08.489Z,10.58
2019-04-16T00:40:38.770Z,10.03
2019-04-16T00:43:09.076Z,10.27
2019-04-16T00:45:39.358Z,10.18
2019-04-16T00:48:09.919Z,10.80
2019-04-16T00:50:40.199Z,9.60
2019-04-16T00:53:10.874Z,10.00
2019-04-16T00:55:42.283Z,9.90
2019-04-16T00:58:13.473Z,10.00
2019-04-16T01:00:43.752Z,10.13
2019-04-16T01:03:14.038Z,10.48
2019-04-16T01:05:44.645Z,10.08
2019-04-16T01:08:14.922Z,9.70
2019-04-16T01:10:45.947Z,10.35
2019-04-16T01:13:16.227Z,10.45
2019-04-16T01:15:46.585Z,10.82
2019-04-16T01:18:16.874Z,10.23
2019-04-16T01:20:47.155Z,10.08
2019-04-16T01:23:18.392Z,10.13
2019-04-16T01:25:48.713Z,9.68
2019-04-16T01:28:23.927Z,10.07
2019-04-16T01:31:08.148Z,9.48
2019-04-16T01:33:38.511Z,12.15
2019-04-16T01:36:26.600Z,10.23
2019-04-16T01:39:14.735Z,8.98
2019-04-16T01:41:30.868Z,9.57
2019-04-16T01:44:01.151Z,9.70
2019-04-16T01:46:32.890Z,10.90
2019-04-16T01:49:03.450Z,8.93
2019-04-16T01:51:33.744Z,9.85
2019-04-16T01:54:04.033Z,9.10
2019-04-16T01:56:34.558Z,10.20
2019-04-16T01:59:06.125Z,9.40
2019-04-16T02:01:36.842Z,9.85
2019-04-16T02:04:07.237Z,9.95
2019-04-16T02:06:37.476Z,9.73
2019-04-16T02:09:16.057Z,9.83
2019-04-16T02:11:41.482Z,9.65
2019-04-16T02:14:14.512Z,8.93
2019-04-16T02:16:44.501Z,9.18
2019-04-16T02:19:15.558Z,10.08
2019-04-16T02:21:45.842Z,10.13
2019-04-16T02:24:18.697Z,10.30
2019-04-16T02:26:48.220Z,9.80
2019-04-16T02:29:18.488Z,9.50
2019-04-16T02:31:51.510Z,9.07
2019-04-16T02:34:20.826Z,9.70
2019-04-16T02:36:51.421Z,10.13
2019-04-16T02:39:25.746Z,9.38
2019-04-16T02:41:58.275Z,9.78
2019-04-16T02:44:26.189Z,9.43
2019-04-16T02:46:56.454Z,9.90
2019-04-16T02:49:26.736Z,9.40
2019-04-16T02:52:01.470Z,9.33
2019-04-16T02:54:39.000Z,9.78
2019-04-16T02:57:26.686Z,9.60
2019-04-16T02:59:55.912Z,9.58
2019-04-16T03:02:44.124Z,8.80
2019-04-16T03:05:16.037Z,8.90
2019-04-16T03:07:46.315Z,8.58
2019-04-16T03:10:16.580Z,9.30
2019-04-16T03:12:51.868Z,9.28
2019-04-16T03:15:20.774Z,9.48
2019-04-16T03:17:51.049Z,9.73
2019-04-16T03:20:24.013Z,9.18
2019-04-16T03:22:53.284Z,9.68
2019-04-16T03:25:23.552Z,9.55
2019-04-16T03:27:54.486Z,9.85
2019-04-16T03:30:25.266Z,9.38
2019-04-16T03:32:55.559Z,9.28
2019-04-16T03:35:26.841Z,9.02
2019-04-16T03:37:57.475Z,10.13
2019-04-16T03:40:27.734Z,9.70
2019-04-16T03:42:59.272Z,8.05
2019-04-16T03:45:30.401Z,8.70
2019-04-16T03:48:00.671Z,9.00
2019-04-16T03:50:32.122Z,8.83
2019-04-16T03:53:02.427Z,9.55
2019-04-16T03:55:32.709Z,8.78
2019-04-16T03:58:06.267Z,9.20
2019-04-16T04:00:35.207Z,9.48
2019-04-16T04:03:05.471Z,8.90
2019-04-16T04:05:36.060Z,9.07
2019-04-16T04:08:06.328Z,8.55
2019-04-16T04:10:37.771Z,9.13
2019-04-16T04:13:08.254Z,9.13
2019-04-16T04:15:38.541Z,9.07
2019-04-16T04:18:11.645Z,9.53
2019-04-16T04:20:41.081Z,8.77
2019-04-16T04:23:11.429Z,9.43
2019-04-16T04:25:42.064Z,9.15
2019-04-16T04:28:12.331Z,9.00
2019-04-16T04:30:42.997Z,8.70
2019-04-16T04:33:15.120Z,9.10
2019-04-16T04:35:45.319Z,9.03
2019-04-16T04:38:16.175Z,9.65
2019-04-16T04:40:50.291Z,9.00
2019-04-16T04:43:18.407Z,9.83
2019-04-16T04:45:48.674Z,8.73
2019-04-16T04:48:23.003Z,9.70
2019-04-16T04:50:51.288Z,8.78
2019-04-16T04:53:21.553Z,9.55
2019-04-16T04:55:54.464Z,9.47
2019-04-16T04:58:24.144Z,9.60
2019-04-16T05:00:54.421Z,9.05
2019-04-16T05:03:32.063Z,10.53
2019-04-16T05:06:07.160Z,9.80
2019-04-16T05:08:37.727Z,9.18
2019-04-16T05:11:08.000Z,8.68
2019-04-16T05:13:38.275Z,9.28
2019-04-16T05:16:08.553Z,9.93
2019-04-16T05:18:41.898Z,9.60
2019-04-16T05:21:10.787Z,9.13
2019-04-16T05:23:41.085Z,9.60
2019-04-16T05:26:11.635Z,10.47
2019-04-16T05:28:45.424Z,10.10
2019-04-16T05:31:13.883Z,9.88
2019-04-16T05:33:44.179Z,9.55
2019-04-16T05:36:15.431Z,9.83
2019-04-16T05:38:45.925Z,9.80
2019-04-16T05:41:20.378Z,10.72
2019-04-16T05:43:48.180Z,10.13
2019-04-16T05:46:18.449Z,9.43
2019-04-16T05:48:51.382Z,9.20
2019-04-16T05:51:20.934Z,9.43
2019-04-16T05:53:52.846Z,9.57
2019-04-16T05:56:24.956Z,9.43
2019-04-16T05:58:55.519Z,9.93
2019-04-16T06:01:33.222Z,10.00
2019-04-16T06:04:03.812Z,9.08
2019-04-16T06:06:34.106Z,9.55
2019-04-16T06:09:11.882Z,9.03
2019-04-16T06:11:39.516Z,9.00
2019-04-16T06:14:30.463Z,9.20
2019-04-16T06:17:05.092Z,9.03
2019-04-16T06:19:46.783Z,9.05
2019-04-16T06:22:37.462Z,10.50
2019-04-16T06:25:25.381Z,9.45
2019-04-16T06:28:09.478Z,9.53
2019-04-16T06:30:43.992Z,9.80
2019-04-16T06:33:19.001Z,9.75
2019-04-16T06:35:54.006Z,9.33
2019-04-16T06:38:26.134Z,8.85
2019-04-16T06:41:03.087Z,9.63
2019-04-16T06:43:48.151Z,9.50
2019-04-16T06:46:20.065Z,10.03
2019-04-16T06:48:52.010Z,9.98
2019-04-16T06:51:43.819Z,9.43
2019-04-16T06:54:25.398Z,9.60
2019-04-16T06:57:02.639Z,9.70
2019-04-16T06:59:34.554Z,9.73
2019-04-16T07:02:15.763Z,9.55
2019-04-16T07:04:47.687Z,9.50
2019-04-16T07:07:40.156Z,10.20
2019-04-16T07:10:14.607Z,9.68
2019-04-16T07:12:49.423Z,10.35
2019-04-16T07:15:24.392Z,9.98
2019-04-16T07:17:51.846Z,9.50
2019-04-16T07:20:22.373Z,9.68
2019-04-16T07:22:53.555Z,10.13
2019-04-16T07:25:27.422Z,10.40
2019-04-16T07:27:58.599Z,9.78
2019-04-16T07:30:38.661Z,9.73
2019-04-16T07:33:07.190Z,9.68
2019-04-16T07:35:48.236Z,10.23
2019-04-16T07:38:23.058Z,10.23
2019-04-16T07:41:00.886Z,10.10
2019-04-16T07:43:38.558Z,10.20
2019-04-16T07:46:28.767Z,9.88
2019-04-16T07:49:00.705Z,10.85
2019-04-16T07:51:35.789Z,10.03
2019-04-16T07:54:09.339Z,10.55
2019-04-16T07:56:41.928Z,10.38
2019-04-16T07:59:12.434Z,9.93
2019-04-16T08:01:44.008Z,10.70
2019-04-16T08:04:23.207Z,10.88
2019-04-16T08:06:47.406Z,11.35
2019-04-16T08:09:17.715Z,10.70
2019-04-16T08:11:48.049Z,11.28
2019-04-16T08:14:18.896Z,11.50
2019-04-16T08:16:49.203Z,11.15
2019-04-16T08:19:19.488Z,11.43
2019-04-16T08:21:49.813Z,10.63
2019-04-16T08:24:27.450Z,11.40
2019-04-16T08:26:57.949Z,11.40
2019-04-16T08:29:28.231Z,11.57
2019-04-16T08:31:58.544Z,11.25
2019-04-16T08:34:28.852Z,12.03
2019-04-16T08:36:59.140Z,11.70
2019-04-16T08:39:29.423Z,10.73
2019-04-16T08:41:59.976Z,10.90
2019-04-16T08:44:35.317Z,11.90
2019-04-16T08:47:02.513Z,12.37
2019-04-16T08:49:32.795Z,11.97
2019-04-16T08:52:03.093Z,11.70
2019-04-16T08:54:33.382Z,12.70
2019-04-16T08:57:03.990Z,11.53
2019-04-16T08:59:35.403Z,11.95
2019-04-16T09:02:05.706Z,10.72
2019-04-16T09:04:36.003Z,11.40
2019-04-16T09:07:11.968Z,11.93
2019-04-16T09:09:40.212Z,11.95
2019-04-16T09:12:10.505Z,12.55
2019-04-16T09:14:42.708Z,12.30
2019-04-16T09:17:14.651Z,12.18
2019-04-16T09:19:46.575Z,11.68
2019-04-16T09:22:17.204Z,11.70
2019-04-16T09:24:52.399Z,11.88
2019-04-16T09:27:28.546Z,12.28
2019-04-16T09:30:09.870Z,12.47
2019-04-16T09:32:40.682Z,12.00
2019-04-16T09:35:24.624Z,13.16
2019-04-16T09:37:56.789Z,11.45
2019-04-16T09:40:31.401Z,11.78
2019-04-16T09:43:16.146Z,12.05
2019-04-16T09:45:37.188Z,11.97
2019-04-16T09:48:07.615Z,13.43
2019-04-16T09:50:43.100Z,13.38
2019-04-16T09:53:09.881Z,13.40
2019-04-16T09:55:40.170Z,12.33
2019-04-16T09:58:12.106Z,12.80
2019-04-16T10:00:47.005Z,12.97
2019-04-16T10:05:47.396Z,13.98
2019-04-16T10:08:17.687Z,12.93
2019-04-16T10:10:48.015Z,13.62
2019-04-16T10:13:29.996Z,12.80
2019-04-16T10:15:50.315Z,12.28
2019-04-16T10:18:20.826Z,14.00
2019-04-16T10:20:51.081Z,13.00
2019-04-16T10:23:32.243Z,13.45
2019-04-16T10:26:02.892Z,12.73
2019-04-16T10:28:43.868Z,12.80
2019-04-16T10:31:15.780Z,12.73
2019-04-16T10:33:46.082Z,13.08
2019-04-16T10:36:16.345Z,12.57
2019-04-16T10:39:04.639Z,12.88
2019-04-16T10:41:56.388Z,12.78
2019-04-16T10:44:29.038Z,12.85
2019-04-16T10:47:03.927Z,13.20
2019-04-16T10:49:44.809Z,13.08
2019-04-16T10:52:32.857Z,12.43
2019-04-16T10:55:20.966Z,12.13
2019-04-16T10:57:55.404Z,12.25
2019-04-16T11:00:29.988Z,11.88
2019-04-16T11:03:11.126Z,12.03
2019-04-16T11:05:43.279Z,11.48
2019-04-16T11:08:13.609Z,11.63
2019-04-16T11:10:43.998Z,11.90
2019-04-16T11:13:27.919Z,11.78
2019-04-16T11:15:59.860Z,11.43
2019-04-16T11:18:30.143Z,10.30
2019-04-16T11:21:00.945Z,11.93
2019-04-16T11:23:31.215Z,10.75
2019-04-16T11:26:01.487Z,12.58
2019-04-16T11:28:31.791Z,10.82
2019-04-16T11:31:03.706Z,11.30
2019-04-16T11:33:33.998Z,8.78
2019-04-16T11:36:17.759Z,9.93
2019-04-16T11:38:36.571Z,8.53
2019-04-16T11:41:06.972Z,8.70
2019-04-16T11:43:37.604Z,8.60
2019-04-16T11:46:07.974Z,8.18
2019-04-16T11:48:38.402Z,8.37
2019-04-16T11:51:08.708Z,8.90
2019-04-16T11:53:38.987Z,7.83
2019-04-16T11:56:09.242Z,9.20
2019-04-16T11:58:41.865Z,9.63
2019-04-16T12:01:13.834Z,9.65
2019-04-16T12:04:03.252Z,10.15
2019-04-16T12:09:34.681Z,9.33
2019-04-16T12:12:15.819Z,9.18
2019-04-16T12:15:00.000Z,9.83
2019-04-16T12:17:47.849Z,9.53
2019-04-16T12:20:22.707Z,10.93
2019-04-16T12:23:06.669Z,9.58
2019-04-16T12:25:38.586Z,10.20
2019-04-16T12:28:25.792Z,10.18
2019-04-16T12:31:16.846Z,9.73
2019-04-16T12:33:51.875Z,9.55
2019-04-16T12:36:40.531Z,10.80
2019-04-16T12:39:21.146Z,11.63
2019-04-16T12:42:00.167Z,11.70
2019-04-16T12:44:45.706Z,12.27
2019-04-16T12:47:15.335Z,11.33
2019-04-16T12:49:47.619Z,11.60
2019-04-16T12:52:25.251Z,13.53
2019-04-16T12:54:59.344Z,10.45
2019-04-16T12:57:33.787Z,11.03
2019-04-16T13:00:10.893Z,10.48
2019-04-16T13:02:52.072Z,10.82
2019-04-16T13:05:39.493Z,11.17
2019-04-16T13:08:17.227Z,11.43
2019-04-16T13:11:00.956Z,12.50
2019-04-16T13:13:49.397Z,13.03
2019-04-16T13:16:27.311Z,12.73
2019-04-16T13:19:08.162Z,12.50
2019-04-16T13:21:40.119Z,12.53
2019-04-16T13:24:12.028Z,13.75
2019-04-16T13:26:43.958Z,14.07
2019-04-16T13:29:17.258Z,14.15
2019-04-16T13:31:47.794Z,15.30
2019-04-16T13:34:19.347Z,16.02
2019-04-16T13:36:51.605Z,16.40
2019-04-16T13:39:26.160Z,15.78
2019-04-16T13:41:56.742Z,15.00
2019-04-16T13:44:40.382Z,15.25
2019-04-16T13:47:09.723Z,15.28
2019-04-16T13:49:44.605Z,13.50
2019-04-16T13:52:17.084Z,13.30
2019-04-16T13:54:55.324Z,11.38
2019-04-16T13:57:30.041Z,12.82
2019-04-16T14:00:05.656Z,12.05
2019-04-16T14:02:47.720Z,11.12
2019-04-16T14:05:19.252Z,10.97
2019-04-16T14:07:49.609Z,11.40
2019-04-16T14:10:19.968Z,10.48
2019-04-16T14:12:50.243Z,10.10
2019-04-16T14:15:31.789Z,9.98
2019-04-16T14:17:59.064Z,11.93
2019-04-16T14:20:26.376Z,10.40
2019-04-16T14:22:56.669Z,11.40
2019-04-16T14:25:26.941Z,9.23
2019-04-16T14:28:02.070Z,8.55
2019-04-16T14:30:31.173Z,8.70
2019-04-16T14:33:01.458Z,9.15
2019-04-16T14:35:34.043Z,10.40
2019-04-16T14:38:04.479Z,10.82
2019-04-16T14:40:34.839Z,10.70
2019-04-16T14:43:05.200Z,10.72
2019-04-16T14:45:57.711Z,11.88
2019-04-16T14:48:16.043Z,11.15
2019-04-16T14:50:46.323Z,9.68
2019-04-16T14:53:18.253Z,10.30
2019-04-16T14:55:59.833Z,9.48
2019-04-16T14:58:26.423Z,10.33
2019-04-16T15:04:00.748Z,9.10
2019-04-16T15:06:44.473Z,9.50
2019-04-16T15:09:32.670Z,8.45
2019-04-16T15:12:08.492Z,8.13
2019-04-16T15:14:40.690Z,9.18
2019-04-16T15:17:19.176Z,8.13
2019-04-16T15:19:53.763Z,8.43
2019-04-16T15:22:43.358Z,8.25
2019-04-16T15:25:15.280Z,9.23
2019-04-16T15:27:49.899Z,9.30
2019-04-16T15:30:38.032Z,8.83
2019-04-16T15:33:24.901Z,9.60
2019-04-16T15:36:08.989Z,9.72
2019-04-16T15:38:40.911Z,9.70
2019-04-16T15:41:27.933Z,10.15
2019-04-16T15:44:16.072Z,11.18
2019-04-16T15:46:48.455Z,11.13
2019-04-16T15:49:24.136Z,11.43
2019-04-16T15:51:58.899Z,10.00
2019-04-16T15:54:33.663Z,10.70
2019-04-16T15:57:17.751Z,10.85
2019-04-16T16:00:07.839Z,11.30
2019-04-16T16:02:45.599Z,11.18
2019-04-16T16:05:27.291Z,12.30
2019-04-16T16:08:15.358Z,11.43
2019-04-16T16:10:53.479Z,10.63
2019-04-16T16:13:26.532Z,11.75
2019-04-16T16:15:55.928Z,12.30
2019-04-16T16:18:26.778Z,11.95
2019-04-16T16:20:57.215Z,12.05
2019-04-16T16:23:32.748Z,13.60
2019-04-16T16:25:59.419Z,12.93
2019-04-16T16:28:29.789Z,13.18
2019-04-16T16:31:00.402Z,13.03
2019-04-16T16:33:30.635Z,14.15
2019-04-16T16:36:00.931Z,13.80
2019-04-16T16:38:31.217Z,13.38
2019-04-16T16:41:01.504Z,13.58
2019-04-16T16:43:31.786Z,12.47
2019-04-16T16:46:18.731Z,13.13
2019-04-16T16:48:50.628Z,12.63
2019-04-16T16:51:23.007Z,11.73
2019-04-16T16:54:00.874Z,12.78
2019-04-16T16:56:49.213Z,12.63
2019-04-16T16:59:23.644Z,11.88
2019-04-16T17:02:08.595Z,12.00
2019-04-16T17:04:38.519Z,12.15
2019-04-16T17:07:09.182Z,12.13
2019-04-16T17:09:39.463Z,12.55
2019-04-16T17:12:09.757Z,12.40
2019-04-16T17:14:40.030Z,12.18
2019-04-16T17:17:14.704Z,13.13
2019-04-16T17:19:42.313Z,12.05
2019-04-16T17:22:14.650Z,12.45
2019-04-16T17:24:44.985Z,12.45
2019-04-16T17:27:15.276Z,12.68
2019-04-16T17:29:46.584Z,13.13
2019-04-16T17:32:17.622Z,13.38
2019-04-16T17:34:48.228Z,14.07
2019-04-16T17:37:21.395Z,13.10
2019-04-16T17:39:54.784Z,13.65
2019-04-16T17:42:26.714Z,13.03
2019-04-16T17:45:14.479Z,13.65
2019-04-16T17:48:05.424Z,12.13
2019-04-16T17:50:39.565Z,13.28
2019-04-16T17:53:15.906Z,12.60
2019-04-16T17:55:47.374Z,12.75
2019-04-16T17:58:19.301Z,12.15
2019-04-16T18:00:51.231Z,13.30
2019-04-16T18:03:37.246Z,11.73
2019-04-16T18:06:17.529Z,12.03
2019-04-16T18:08:49.462Z,12.25
2019-04-16T18:11:27.390Z,12.30
2019-04-16T18:14:08.821Z,12.07
2019-04-16T18:16:54.326Z,11.75
2019-04-16T18:19:39.259Z,9.85
2019-04-16T18:22:15.875Z,8.00
2019-04-16T18:24:53.903Z,7.17
2019-04-16T18:27:29.226Z,5.67
2019-04-16T18:30:08.673Z,5.55
2019-04-16T18:32:58.893Z,5.42
2019-04-16T18:35:33.535Z,4.90
2019-04-16T18:38:22.225Z,4.40
2019-04-16T18:41:11.211Z,4.83
2019-04-16T18:43:59.236Z,4.30
2019-04-16T18:46:31.160Z,4.37
2019-04-16T18:49:03.090Z,4.23
2019-04-16T18:51:34.285Z,4.60
2019-04-16T18:54:05.057Z,5.07
2019-04-16T18:56:35.333Z,4.47
2019-04-16T18:59:05.687Z,3.83
2019-04-16T19:01:37.874Z,4.60
2019-04-16T19:04:08.153Z,4.08
2019-04-16T19:06:38.725Z,3.30
2019-04-16T19:09:09.216Z,3.70
2019-04-16T19:11:39.485Z,3.60
2019-04-16T19:14:12.540Z,3.35
2019-04-16T19:16:41.750Z,3.22
2019-04-16T19:19:12.034Z,3.55
2019-04-16T19:21:42.884Z,3.53
2019-04-16T19:24:13.454Z,3.10
2019-04-16T19:26:43.742Z,3.10
2019-04-16T19:29:14.835Z,3.25
2019-04-16T19:31:46.103Z,3.34
2019-04-16T19:34:16.384Z,3.05
2019-04-16T19:36:46.659Z,2.97
2019-04-16T19:39:17.078Z,2.65
2019-04-16T19:41:47.410Z,3.12
2019-04-16T19:44:17.691Z,3.08
2019-04-16T19:46:52.665Z,2.90
2019-04-16T19:49:20.101Z,3.10
2019-04-16T19:51:50.381Z,3.55
2019-04-16T19:54:20.928Z,3.30
2019-04-16T19:56:52.018Z,3.20
2019-04-16T19:59:22.603Z,2.92
2019-04-16T20:01:55.980Z,3.00
2019-04-16T20:04:24.876Z,3.25
2019-04-16T20:07:00.005Z,3.37
2019-04-16T20:09:27.162Z,2.95
2019-04-16T20:11:57.403Z,3.10
2019-04-16T20:14:27.685Z,2.86
2019-04-16T20:16:57.982Z,2.55
2019-04-16T20:19:28.468Z,2.65
2019-04-16T20:21:59.469Z,2.75
2019-04-16T20:24:29.736Z,2.87
2019-04-16T20:27:04.877Z,2.93
2019-04-16T20:29:32.059Z,3.27
2019-04-16T20:32:02.391Z,2.60
2019-04-16T20:34:32.667Z,2.90
2019-04-16T20:37:02.950Z,3.35
2019-04-16T20:39:33.250Z,2.85
2019-04-16T20:42:03.712Z,3.02
2019-04-16T20:44:34.316Z,3.20
2019-04-16T20:47:07.913Z,2.90
2019-04-16T20:49:36.968Z,2.80
2019-04-16T20:52:07.320Z,2.83
2019-04-16T20:54:44.029Z,3.27
2019-04-16T20:57:11.415Z,2.97
2019-04-16T20:59:41.960Z,2.70
2019-04-16T21:02:12.592Z,2.50
2019-04-16T21:04:44.337Z,2.55
2019-04-16T21:07:15.477Z,2.70
2019-04-16T21:09:45.864Z,2.54
2019-04-16T21:12:16.149Z,2.37
2019-04-16T21:14:46.429Z,2.83
2019-04-16T21:17:17.841Z,2.90
2019-04-16T21:19:48.181Z,2.35
2019-04-16T21:22:19.234Z,2.40
2019-04-16T21:24:49.576Z,2.72
2019-04-16T21:27:19.853Z,2.55
2019-04-16T21:29:50.133Z,2.58
2019-04-16T21:32:24.854Z,2.77
2019-04-16T21:35:06.184Z,2.20
2019-04-16T21:37:55.985Z,2.16
2019-04-16T21:40:26.221Z,2.70
2019-04-16T21:42:56.488Z,2.77
2019-04-16T21:45:26.769Z,2.65
2019-04-16T21:47:57.048Z,2.40
2019-04-16T21:50:27.329Z,2.40
2019-04-16T21:52:57.598Z,2.55
2019-04-16T21:55:27.879Z,2.87
2019-04-16T21:57:58.327Z,2.56
2019-04-16T22:00:40.137Z,2.22
2019-04-16T22:03:15.169Z,2.65
2019-04-16T22:05:48.141Z,2.50
2019-04-16T22:08:17.417Z,2.27
2019-04-16T22:10:47.698Z,2.58
2019-04-16T22:13:19.481Z,2.30
2019-04-16T22:15:50.370Z,2.47
2019-04-16T22:18:20.912Z,2.70
2019-04-16T22:20:51.193Z,2.60
2019-04-16T22:23:21.473Z,2.45
2019-04-16T22:25:51.749Z,2.40
2019-04-16T22:28:22.029Z,2.33
2019-04-16T22:30:52.361Z,2.80
2019-04-16T22:33:22.583Z,2.80
2019-04-16T22:35:54.199Z,2.65
2019-04-16T22:38:25.752Z,2.10
2019-04-16T22:40:58.014Z,2.58
2019-04-16T22:43:30.292Z,2.57
2019-04-16T22:46:02.386Z,2.55
2019-04-16T22:48:32.561Z,2.50
2019-04-16T22:51:02.841Z,2.60
2019-04-16T22:53:33.124Z,2.62
2019-04-16T22:56:03.397Z,2.40
2019-04-16T22:58:49.901Z,2.17
2019-04-16T23:01:22.231Z,2.50
2019-04-16T23:03:53.423Z,2.10
2019-04-16T23:06:24.670Z,2.05
2019-04-16T23:08:55.170Z,2.00
2019-04-16T23:11:25.453Z,1.90
2019-04-16T23:13:55.803Z,1.90
2019-04-16T23:16:26.096Z,1.82
2019-04-16T23:18:56.352Z,1.70
2019-04-16T23:21:26.636Z,1.77
2019-04-16T23:23:57.009Z,1.80
2019-04-16T23:26:32.141Z,1.63
2019-04-16T23:28:59.256Z,1.85
2019-04-16T23:31:29.531Z,1.72
2019-04-16T23:34:04.575Z,1.65
2019-04-16T23:36:31.784Z,2.08
2019-04-16T23:39:04.664Z,2.00
2019-04-16T23:41:34.108Z,1.72
2019-04-16T23:44:15.057Z,1.92
2019-04-16T23:47:02.288Z,1.82
2019-04-16T23:49:36.757Z,1.80
2019-04-16T23:52:20.802Z,2.06
2019-04-16T23:54:55.463Z,1.90
2019-04-16T23:57:43.724Z,1.65
